createdAt,value
2022-10-06T00:03:32.063Z,60
2022-10-06T00:09:12.341Z,64
2022-10-06T00:14:53.686Z,60
2022-10-06T00:20:34.298Z,70
2022-10-06T00:26:14.714Z,60
2022-10-06T00:31:55.166Z,60
2022-10-06T00:37:35.462Z,60
2022-10-06T00:43:16.347Z,66
2022-10-06T00:48:57.230Z,76
2022-10-06T00:54:37.488Z,60
2022-10-06T01:00:17.779Z,58
2022-10-06T01:05:58.216Z,64
2022-10-06T01:22:59.414Z,58
2022-10-06T01:28:40.566Z,60
2022-10-06T01:34:21.535Z,74
2022-10-06T01:40:02.326Z,66
2022-10-06T01:45:42.674Z,64
2022-10-06T01:51:23.020Z,62
2022-10-06T01:57:03.543Z,60
2022-10-06T02:02:44.114Z,70
2022-10-06T02:08:24.317Z,74
2022-10-06T02:14:04.608Z,58
2022-10-06T02:19:44.746Z,62
2022-10-06T02:25:24.851Z,70
2022-10-06T02:31:05.649Z,70
2022-10-06T02:36:46.299Z,66
2022-10-06T02:42:26.401Z,66
2022-10-06T02:48:06.614Z,66
2022-10-06T02:53:46.766Z,66
2022-10-06T02:59:26.685Z,72
2022-10-06T03:05:06.878Z,64
2022-10-06T03:10:47.090Z,72
2022-10-06T03:16:28.036Z,72
2022-10-06T03:22:08.890Z,62
2022-10-06T03:27:49.129Z,54
2022-10-06T03:33:29.722Z,62
2022-10-06T03:39:09.838Z,66
2022-10-06T03:44:50.300Z,56
2022-10-06T03:50:31.056Z,72
2022-10-06T03:56:11.703Z,74
2022-10-06T04:01:51.997Z,72
2022-10-06T04:07:32.267Z,60
2022-10-06T04:13:12.867Z,64
2022-10-06T04:24:33.875Z,78
2022-10-06T04:30:14.595Z,60
2022-10-06T04:35:54.680Z,64
2022-10-06T04:41:34.936Z,70
2022-10-06T04:47:15.879Z,64
2022-10-06T04:52:56.471Z,60
2022-10-06T04:58:36.568Z,64
2022-10-06T05:04:17.336Z,56
2022-10-06T05:09:57.741Z,62
2022-10-06T05:15:39.285Z,70
2022-10-06T05:21:19.762Z,66
2022-10-06T05:27:02.569Z,56
2022-10-06T05:32:43.033Z,58
2022-10-06T05:38:23.371Z,70
2022-10-06T05:44:03.208Z,66
2022-10-06T05:49:43.462Z,62
2022-10-06T05:55:24.258Z,60
2022-10-06T06:01:04.598Z,62
2022-10-06T06:06:44.763Z,54
2022-10-06T06:18:06.927Z,62
2022-10-06T06:23:47.155Z,60
2022-10-06T06:29:31.665Z,72
2022-10-06T06:35:12.288Z,60
2022-10-06T06:40:52.900Z,72
2022-10-06T06:52:14.603Z,58
2022-10-06T06:57:54.822Z,66
2022-10-06T07:03:59.833Z,76
2022-10-06T07:09:40.388Z,72
2022-10-06T07:15:20.713Z,60
2022-10-06T07:21:01.355Z,70
2022-10-06T07:26:41.711Z,72
2022-10-06T07:32:22.103Z,74
2022-10-06T07:38:02.817Z,74
2022-10-06T07:43:46.549Z,80
2022-10-06T07:49:26.970Z,78
2022-10-06T07:55:11.013Z,66
2022-10-06T08:17:52.870Z,84
2022-10-06T08:23:34.637Z,70
2022-10-06T08:29:14.907Z,68
2022-10-06T08:34:58.709Z,72
2022-10-06T08:40:39.369Z,76
2022-10-06T08:46:25.494Z,36
2022-10-06T08:52:05.897Z,20
2022-10-06T08:57:46.213Z,18
2022-10-06T09:03:26.437Z,18
2022-10-06T09:09:06.397Z,30
2022-10-06T09:14:49.149Z,30
2022-10-06T09:20:29.521Z,16
2022-10-06T09:26:09.837Z,22
2022-10-06T09:31:53.326Z,12
2022-10-06T09:37:35.642Z,10
2022-10-06T09:43:16.165Z,0
2022-10-06T09:48:56.531Z,0
2022-10-06T10:00:18.813Z,0
2022-10-06T10:11:39.379Z,0
2022-10-06T10:17:19.699Z,0
2022-10-06T10:23:02.364Z,0
2022-10-06T10:28:43.903Z,0
2022-10-06T10:34:25.518Z,0
2022-10-06T10:40:05.946Z,0
2022-10-06T10:45:49.559Z,0
2022-10-06T10:51:34.938Z,0
2022-10-06T10:57:15.444Z,0
2022-10-06T11:02:56.663Z,0
2022-10-06T11:08:37.452Z,0
2022-10-06T11:14:17.084Z,0
2022-10-06T11:19:58.285Z,4
2022-10-06T11:25:37.827Z,0
2022-10-06T11:31:24.096Z,2
2022-10-06T11:37:06.949Z,0
2022-10-06T11:42:49.934Z,0
2022-10-06T11:48:30.246Z,0
2022-10-06T11:54:11.234Z,0
2022-10-06T11:59:51.812Z,0
2022-10-06T12:06:07.246Z,0
2022-10-06T12:11:50.053Z,0
2022-10-06T12:23:13.607Z,0
2022-10-06T12:28:57.303Z,0
2022-10-06T12:34:37.747Z,0
2022-10-06T12:45:48.665Z,0
2022-10-06T12:51:29.822Z,0
2022-10-06T12:57:10.532Z,0
2022-10-06T13:02:51.963Z,0
2022-10-06T13:08:32.547Z,0
2022-10-06T13:14:12.914Z,0
2022-10-06T13:19:54.289Z,0
2022-10-06T13:25:38.211Z,0
2022-10-06T13:31:30.199Z,0
2022-10-06T13:37:15.861Z,0
2022-10-06T13:42:56.736Z,0
2022-10-06T13:48:45.325Z,0
2022-10-06T13:54:25.880Z,0
2022-10-06T14:00:09.803Z,0
2022-10-06T14:11:30.915Z,4
2022-10-06T14:17:11.136Z,10
2022-10-06T14:22:51.823Z,24
2022-10-06T14:28:33.004Z,80
2022-10-06T14:34:13.192Z,76
2022-10-06T14:39:54.823Z,70
2022-10-06T14:45:35.567Z,70
2022-10-06T14:51:15.976Z,82
2022-10-06T14:56:56.114Z,74
2022-10-06T15:02:37.312Z,66
2022-10-06T15:08:18.656Z,70
2022-10-06T15:13:58.913Z,64
2022-10-06T15:19:39.486Z,78
2022-10-06T15:25:20.348Z,64
2022-10-06T15:31:01.617Z,70
2022-10-06T15:36:42.263Z,76
2022-10-06T15:42:22.883Z,78
2022-10-06T15:48:03.242Z,70
2022-10-06T15:53:43.821Z,78
2022-10-06T16:05:04.419Z,66
2022-10-06T16:15:46.985Z,106
2022-10-06T16:21:27.196Z,70
2022-10-06T16:27:07.224Z,68
2022-10-06T16:32:50.540Z,74
2022-10-06T16:38:30.874Z,64
2022-10-06T16:44:17.137Z,66
2022-10-06T16:49:57.280Z,62
2022-10-06T16:55:37.853Z,72
2022-10-06T17:01:22.274Z,60
2022-10-06T17:07:03.295Z,64
2022-10-06T17:12:43.882Z,80
2022-10-06T17:18:23.896Z,72
2022-10-06T17:24:04.206Z,66
2022-10-06T17:29:44.948Z,70
2022-10-06T17:35:25.183Z,80
2022-10-06T17:41:06.202Z,60
2022-10-06T17:46:46.455Z,74
2022-10-06T17:52:26.846Z,64
2022-10-06T17:58:07.175Z,82
2022-10-06T18:03:50.154Z,72
2022-10-06T18:09:30.524Z,66
2022-10-06T18:15:10.918Z,62
2022-10-06T18:20:51.392Z,60
2022-10-06T18:26:31.958Z,74
2022-10-06T18:36:18.607Z,78
2022-10-06T18:42:00.353Z,86
2022-10-06T18:47:45.109Z,72
2022-10-06T18:53:36.805Z,76
2022-10-06T18:59:17.554Z,66
2022-10-06T19:04:58.001Z,60
2022-10-06T19:10:55.317Z,76
2022-10-06T19:16:36.275Z,66
2022-10-06T19:22:26.406Z,64
2022-10-06T19:28:22.697Z,66
2022-10-06T19:34:09.911Z,66
2022-10-06T19:40:00.455Z,72
2022-10-06T19:45:46.966Z,64
2022-10-06T19:51:30.659Z,70
2022-10-06T19:57:20.404Z,74
2022-10-06T20:08:46.635Z,60
2022-10-06T20:14:40.210Z,72
2022-10-06T20:20:24.348Z,58
2022-10-06T20:26:07.301Z,76
2022-10-06T20:31:47.559Z,70
2022-10-06T20:37:28.498Z,66
2022-10-06T20:43:15.206Z,62
2022-10-06T20:48:58.717Z,80
2022-10-06T20:54:39.104Z,56
2022-10-06T21:00:22.950Z,72
2022-10-06T21:06:03.997Z,60
2022-10-06T21:11:44.705Z,72
2022-10-06T21:17:27.250Z,58
2022-10-06T21:23:10.101Z,60
2022-10-06T21:28:50.677Z,60
2022-10-06T21:34:30.871Z,72
2022-10-06T21:40:10.990Z,72
2022-10-06T21:46:32.157Z,64
2022-10-06T21:52:13.006Z,50
2022-10-06T21:57:53.182Z,66
2022-10-06T22:03:33.275Z,66
2022-10-06T22:09:13.434Z,64
2022-10-06T22:14:53.769Z,72
2022-10-06T22:20:36.842Z,60
2022-10-06T22:26:17.214Z,58
2022-10-06T22:31:57.746Z,52
2022-10-06T22:37:38.342Z,72
2022-10-06T22:43:18.643Z,70
2022-10-06T22:48:58.714Z,58
2022-10-06T22:54:42.018Z,72
2022-10-06T23:00:22.776Z,60
2022-10-06T23:06:04.433Z,60
2022-10-06T23:11:44.992Z,72
2022-10-06T23:17:26.368Z,76
2022-10-06T23:23:06.404Z,74
2022-10-06T23:28:51.961Z,64
2022-10-06T23:34:31.629Z,72
2022-10-06T23:40:11.720Z,54
2022-10-06T23:45:55.889Z,68
2022-10-06T23:51:40.005Z,64
2022-10-06T23:57:19.859Z,58
